Terminal Aerodrome Forecast
Issued by NWS

Home | Current Version | Previous Version | Text Only | Print | Product List | Glossary On
Versions: 1 2 3 4 5 6 7 8 9 10 11 12 13 14
000
FTUS45 KTWC 272322
TAFOLS
TAF
KOLS 272322Z 2800/2824 23015G22KT P6SM OVC100
     FM280300 17008KT P6SM SCT100
     FM281630 27018G26KT P6SM SCT080=

USA.gov is the U.S. government's official web portal to all federal, state and local government web resources and services.